Time;durP1;ratioP1;P1;durP2;ratioP2;P2;SDS_P1;SDS_P2;PMS_P1;PMS_P2;Temp;Humidity;BMP_temperature;BMP_pressure;BME280_temperature;BME280_humidity;BME280_pressure;Samples;Min_cycle;Max_cycle;Signal;HPM_P1;HPM_P2
2022/06/19 00:00:37;;;;;;;0.32;0.32;;;;;;;21.27;58.70;96236.97;10375143;28;20065;-21
2022/06/19 00:05:38;;;;;;;0.20;0.20;;;;;;;21.49;59.37;96228.03;10371339;28;20377;-20
2022/06/19 00:10:38;;;;;;;0.30;0.30;;;;;;;21.48;59.09;96228.91;10372777;28;20046;-21
2022/06/19 00:15:39;;;;;;;0.30;0.30;;;;;;;21.37;58.24;96220.66;10371052;28;20044;-21
2022/06/19 00:20:40;;;;;;;0.20;0.20;;;;;;;21.32;58.05;96211.44;10371805;28;20069;-23
2022/06/19 00:25:40;;;;;;;0.30;0.30;;;;;;;21.25;58.08;96200.53;10370832;28;20084;-23
2022/06/19 00:30:40;;;;;;;1.02;0.60;;;;;;;21.28;58.01;96213.19;10371997;28;20047;-20
2022/06/19 00:35:41;;;;;;;0.80;0.43;;;;;;;21.23;57.67;96203.97;10370763;28;20038;-21
2022/06/19 00:40:42;;;;;;;0.43;0.30;;;;;;;21.26;57.73;96209.84;10371539;28;20039;-20
2022/06/19 00:45:51;;;;;;;0.20;0.20;;;;;;;21.26;57.78;96204.75;10393335;28;20029;-21
2022/06/19 00:50:53;;;;;;;0.40;0.40;;;;;;;21.29;58.84;96204.69;10410517;28;20037;-23
2022/06/19 00:55:56;;;;;;;0.32;0.20;;;;;;;21.50;59.41;96205.97;10369619;28;20037;-24
2022/06/19 01:01:00;;;;;;;0.45;0.30;;;;;;;21.47;58.80;96198.41;10370730;28;20034;-21
2022/06/19 01:06:01;;;;;;;0.40;0.32;;;;;;;21.36;58.46;96185.88;10369135;28;20061;-21
2022/06/19 01:11:02;;;;;;;0.20;0.20;;;;;;;21.32;57.91;96189.34;10369754;28;20045;-22
2022/06/19 01:16:04;;;;;;;0.85;0.40;;;;;;;21.30;58.06;96196.19;10369301;28;20493;-21
2022/06/19 01:21:24;;;;;;;0.52;0.40;;;;;;;21.28;57.70;96194.53;10369799;28;20323;-20
2022/06/19 01:26:27;;;;;;;0.50;0.35;;;;;;;21.28;57.79;96190.28;10368568;28;20352;-21
2022/06/19 01:31:51;;;;;;;0.30;0.30;;;;;;;21.24;57.69;96193.72;10369161;28;20037;-21
2022/06/19 01:36:57;;;;;;;0.22;0.22;;;;;;;21.27;57.94;96201.34;10367055;28;20034;-22
2022/06/19 01:41:58;;;;;;;0.20;0.20;;;;;;;21.35;59.90;96206.28;10369150;28;20152;-21
2022/06/19 01:46:59;;;;;;;0.47;0.17;;;;;;;21.55;59.58;96201.63;10401837;28;20034;-22
2022/06/19 01:52:01;;;;;;;0.43;0.30;;;;;;;21.47;58.92;96189.03;10397355;28;20038;-21
2022/06/19 01:57:04;;;;;;;0.38;0.30;;;;;;;21.39;58.28;96190.91;10400240;28;20022;-20
2022/06/19 02:02:06;;;;;;;0.20;0.20;;;;;;;21.35;58.08;96184.22;10368541;28;20034;-22
2022/06/19 02:07:12;;;;;;;0.60;0.60;;;;;;;21.32;57.86;96183.41;10367557;28;20064;-21
2022/06/19 02:12:13;;;;;;;0.20;0.20;;;;;;;21.31;57.86;96172.38;10367402;28;20083;-21
2022/06/19 02:17:29;;;;;;;0.88;0.40;;;;;;;21.29;57.84;96173.31;10367677;28;20615;-22
2022/06/19 02:22:29;;;;;;;0.43;0.30;;;;;;;21.29;57.72;96179.22;10367051;28;20034;-22
2022/06/19 02:27:34;;;;;;;0.30;0.30;;;;;;;21.29;57.93;96186.88;10367506;28;20404;-21
2022/06/19 02:32:39;;;;;;;0.50;0.47;;;;;;;21.36;61.61;96177.38;10367337;28;20038;-24
2022/06/19 02:37:43;;;;;;;0.32;0.30;;;;;;;21.56;59.38;96188.84;10366940;28;20026;-24
2022/06/19 02:42:46;;;;;;;0.25;0.15;;;;;;;21.45;58.95;96180.59;10366874;28;20041;-22
2022/06/19 02:47:49;;;;;;;0.20;0.20;;;;;;;21.39;58.13;96177.34;10407188;28;20029;-20
2022/06/19 02:52:50;;;;;;;0.20;0.20;;;;;;;21.35;57.94;96175.72;10404853;28;20041;-22
2022/06/19 02:57:51;;;;;;;0.30;0.30;;;;;;;21.34;57.81;96182.53;10392169;28;20030;-22
2022/06/19 03:02:55;;;;;;;0.65;0.30;;;;;;;21.32;57.81;96184.25;10366652;28;20080;-21
2022/06/19 03:07:56;;;;;;;0.30;0.30;;;;;;;21.33;57.91;96187.66;10367249;28;20033;-22
2022/06/19 03:12:59;;;;;;;0.47;0.20;;;;;;;21.30;57.72;96170.72;10365938;28;20065;-21
2022/06/19 03:18:00;;;;;;;0.50;0.40;;;;;;;21.31;57.75;96167.28;10366242;28;20021;-22
2022/06/19 03:23:00;;;;;;;0.50;0.40;;;;;;;21.41;60.24;96167.97;10365231;28;20033;-20
2022/06/19 03:28:01;;;;;;;0.60;0.40;;;;;;;21.59;58.83;96155.69;10365754;28;20034;-21
2022/06/19 03:33:01;;;;;;;0.20;0.20;;;;;;;21.46;58.82;96158.53;10365437;28;20285;-21
2022/06/19 03:38:02;;;;;;;0.20;0.20;;;;;;;21.38;57.98;96153.56;10365606;28;20034;-21
2022/06/19 03:43:02;;;;;;;0.30;0.30;;;;;;;21.33;57.79;96150.31;10366979;28;20045;-22
2022/06/19 03:48:03;;;;;;;0.20;0.20;;;;;;;21.34;58.03;96162.16;10406726;28;20061;-21
2022/06/19 03:53:03;;;;;;;0.40;0.30;;;;;;;21.34;57.90;96162.16;10387811;28;20041;-21
2022/06/19 03:58:03;;;;;;;0.40;0.40;;;;;;;21.35;57.85;96158.75;10368943;28;20034;-21
2022/06/19 04:03:04;;;;;;;0.73;0.60;;;;;;;21.34;57.93;96154.53;10371000;28;20405;-21
2022/06/19 04:08:04;;;;;;;0.47;0.40;;;;;;;21.34;57.71;96151.97;10372746;28;20030;-20
2022/06/19 04:13:05;;;;;;;0.20;0.20;;;;;;;21.43;60.80;96161.97;10372128;28;20524;-21
2022/06/19 04:18:05;;;;;;;0.20;0.20;;;;;;;21.60;58.94;96162.47;10372716;28;20030;-21
2022/06/19 04:23:08;;;;;;;0.35;0.28;;;;;;;21.45;58.86;96159.38;10371442;28;20619;-21
2022/06/19 04:28:09;;;;;;;0.20;0.20;;;;;;;21.34;57.98;96149.44;10371265;28;20194;-21
2022/06/19 04:33:10;;;;;;;0.38;0.35;;;;;;;21.37;57.81;96151.91;10370820;28;20404;-20
2022/06/19 04:38:10;;;;;;;0.60;0.30;;;;;;;21.36;58.00;96157.88;10370629;28;20041;-21
2022/06/19 04:43:11;;;;;;;0.40;0.37;;;;;;;21.35;57.81;96156.19;10372969;28;20038;-20
2022/06/19 04:48:13;;;;;;;0.32;0.32;;;;;;;21.35;57.77;96168.94;10411884;28;20279;-21
2022/06/19 04:53:13;;;;;;;0.50;0.47;;;;;;;21.35;57.96;96173.16;10385695;28;20034;-22
2022/06/19 04:58:14;;;;;;;0.60;0.47;;;;;;;21.34;57.87;96161.31;10370271;28;20076;-21
2022/06/19 05:03:14;;;;;;;0.30;0.30;;;;;;;21.46;60.09;96176.34;10369711;28;20066;-22
2022/06/19 05:08:15;;;;;;;0.40;0.20;;;;;;;21.62;59.00;96173.44;10368924;28;20026;-21
2022/06/19 05:13:21;;;;;;;0.30;0.30;;;;;;;21.46;58.77;96172.09;10369703;28;20034;-21
2022/06/19 05:18:21;;;;;;;0.20;0.20;;;;;;;21.39;57.93;96170.53;10373024;28;20519;-22
2022/06/19 05:23:21;;;;;;;0.30;0.30;;;;;;;21.37;58.08;96167.19;10370600;28;20129;-22
2022/06/19 05:28:22;;;;;;;0.30;0.30;;;;;;;21.36;57.73;96154.47;10371235;28;20758;-21
2022/06/19 05:33:22;;;;;;;1.03;0.30;;;;;;;21.34;57.75;96154.53;10371479;28;20038;-22
2022/06/19 05:38:24;;;;;;;0.40;0.40;;;;;;;21.33;57.89;96150.31;10371811;28;20033;-23
2022/06/19 05:43:26;;;;;;;0.85;0.45;;;;;;;21.34;57.98;96157.06;10373583;28;20038;-21
2022/06/19 05:48:27;;;;;;;0.30;0.30;;;;;;;21.35;57.74;96162.97;10409852;28;20044;-19
2022/06/19 05:53:30;;;;;;;0.98;0.20;;;;;;;21.49;60.39;96171.19;10385883;28;20038;-20
2022/06/19 05:58:32;;;;;;;0.28;0.25;;;;;;;21.62;58.77;96170.06;10368822;28;20033;-21
2022/06/19 06:03:32;;;;;;;0.30;0.20;;;;;;;21.48;58.63;96175.44;10367719;28;20046;-22
2022/06/19 06:08:36;;;;;;;0.20;0.20;;;;;;;21.42;57.89;96180.66;10368599;28;20033;-22
2022/06/19 06:13:37;;;;;;;0.30;0.30;;;;;;;21.40;57.85;96177.28;10366812;28;20049;-21
2022/06/19 06:18:37;;;;;;;0.40;0.30;;;;;;;21.38;57.80;96184.13;10368194;28;20056;-20
2022/06/19 06:23:38;;;;;;;0.80;0.30;;;;;;;21.37;58.20;96185.00;10366371;28;20034;-22
2022/06/19 06:28:41;;;;;;;1.15;0.50;;;;;;;21.36;58.05;96193.53;10367704;28;20519;-21
2022/06/19 06:33:42;;;;;;;0.77;0.50;;;;;;;21.32;57.89;96183.41;10366864;28;20096;-24
2022/06/19 06:38:43;;;;;;;1.67;0.63;;;;;;;21.35;57.95;96194.38;10367053;28;20036;-23
2022/06/19 06:43:45;;;;;;;1.10;0.30;;;;;;;21.52;59.97;96194.03;10373169;28;20036;-21
2022/06/19 06:48:48;;;;;;;0.20;0.20;;;;;;;21.62;58.60;96190.44;10407725;28;20396;-21
2022/06/19 06:53:48;;;;;;;1.08;0.50;;;;;;;21.47;58.71;96186.50;10395977;28;20038;-20
2022/06/19 06:58:49;;;;;;;0.35;0.30;;;;;;;21.43;58.09;96191.69;10384244;28;20021;-20
2022/06/19 07:03:54;;;;;;;0.57;0.40;;;;;;;21.41;58.06;96201.06;10366675;28;20042;-21
2022/06/19 07:08:55;;;;;;;1.23;0.70;;;;;;;21.39;57.78;96198.53;10366734;28;20289;-21
2022/06/19 07:13:56;;;;;;;0.93;0.60;;;;;;;21.38;57.94;96201.97;10366668;28;20046;-21
2022/06/19 07:18:57;;;;;;;0.43;0.43;;;;;;;21.38;57.85;96198.59;10366598;28;20026;-21
2022/06/19 07:23:57;;;;;;;1.13;0.40;;;;;;;21.37;57.79;96197.75;10365843;28;20037;-21
2022/06/19 07:28:58;;;;;;;0.57;0.57;;;;;;;21.38;57.90;96201.97;10366162;28;20034;-21
2022/06/19 07:33:59;;;;;;;1.55;0.30;;;;;;;21.53;59.83;96196.56;10370764;28;20339;-22
2022/06/19 07:38:59;;;;;;;0.30;0.30;;;;;;;21.59;58.89;96190.50;10374544;28;20540;-21
2022/06/19 07:43:59;;;;;;;0.30;0.22;;;;;;;21.50;58.65;96200.88;10381967;28;20552;-20
2022/06/19 07:54:18;;;;;;;1.05;0.50;;;;;;;21.42;57.92;96188.31;10380115;28;20821;-23
2022/06/19 07:59:19;;;;;;;0.57;0.50;;;;;;;21.41;57.80;96183.25;10373133;28;20117;-20
2022/06/19 08:04:19;;;;;;;0.27;0.27;;;;;;;21.41;57.88;96178.97;10372195;28;20472;-20
2022/06/19 08:09:21;;;;;;;0.47;0.45;;;;;;;21.42;57.90;96180.66;10372933;28;20046;-20
2022/06/19 08:14:21;;;;;;;0.80;0.50;;;;;;;21.41;57.76;96181.50;10371761;28;20029;-21
2022/06/19 08:19:22;;;;;;;1.30;0.50;;;;;;;21.42;57.94;96183.22;10372581;28;20277;-22
2022/06/19 08:24:22;;;;;;;0.40;0.33;;;;;;;21.57;60.76;96180.34;10371904;28;20637;-21
2022/06/19 08:29:22;;;;;;;0.53;0.23;;;;;;;21.65;58.84;96183.59;10371843;28;20301;-20
2022/06/19 08:34:23;;;;;;;0.30;0.30;;;;;;;21.52;58.64;96181.31;10372024;28;20115;-21
2022/06/19 08:39:23;;;;;;;0.40;0.20;;;;;;;21.48;58.25;96174.59;10371746;28;20092;-21
2022/06/19 08:44:35;;;;;;;0.40;0.40;;;;;;;21.47;58.10;96183.13;10382765;28;20037;-22
2022/06/19 08:49:54;;;;;;;0.90;0.60;;;;;;;21.44;57.82;96173.84;10412861;28;20041;-22
2022/06/19 08:55:13;;;;;;;0.40;0.40;;;;;;;21.45;58.04;96174.66;10409342;28;20037;-21
2022/06/19 09:00:27;;;;;;;0.43;0.30;;;;;;;21.43;57.93;96172.16;10376206;28;20030;-21
2022/06/19 09:05:59;;;;;;;0.90;0.50;;;;;;;21.44;57.75;96166.19;10369812;28;20033;-21
2022/06/19 09:11:25;;;;;;;1.17;0.40;;;;;;;21.45;61.07;96164.47;10370780;28;20503;-23
2022/06/19 09:16:39;;;;;;;0.20;0.20;;;;;;;21.69;59.35;96174.19;10369877;28;20050;-20
2022/06/19 09:22:07;;;;;;;0.40;0.40;;;;;;;21.58;58.96;96183.72;10369849;28;20050;-23
2022/06/19 09:27:10;;;;;;;0.25;0.25;;;;;;;21.49;58.20;96166.91;10369748;28;20156;-21
2022/06/19 09:32:21;;;;;;;0.35;0.35;;;;;;;21.45;58.14;96167.88;10369228;28;20033;-21
2022/06/19 09:37:35;;;;;;;0.47;0.40;;;;;;;21.46;57.85;96172.09;10368994;28;20053;-24
2022/06/19 09:42:39;;;;;;;0.75;0.47;;;;;;;21.44;57.70;96176.38;10368344;28;20034;-24
2022/06/19 09:47:46;;;;;;;0.50;0.50;;;;;;;21.47;58.13;96175.47;10407939;28;20033;-21
2022/06/19 09:53:01;;;;;;;1.05;0.60;;;;;;;21.46;58.03;96174.63;10405304;28;20037;-22
2022/06/19 09:58:17;;;;;;;1.88;0.47;;;;;;;21.45;57.64;96170.41;10391741;28;20029;-21
2022/06/19 10:03:47;;;;;;;0.33;0.33;;;;;;;21.59;60.36;96165.03;10367877;28;20034;-22
2022/06/19 10:09:03;;;;;;;0.20;0.20;;;;;;;21.70;58.76;96151.22;10368306;28;20116;-21
2022/06/19 10:14:08;;;;;;;;;;;;;;;21.55;58.61;96141.31;10367675;28;20041;-22
2022/06/19 10:19:17;;;;;;;1.35;1.25;;;;;;;21.50;58.11;96137.19;10368191;28;20423;-21
2022/06/19 10:24:46;;;;;;;0.60;0.60;;;;;;;21.47;57.98;96133.00;10367150;28;20030;-21
2022/06/19 10:30:11;;;;;;;0.55;0.43;;;;;;;21.46;57.70;96133.88;10367474;28;20084;-25
2022/06/19 10:35:22;;;;;;;0.45;0.45;;;;;;;21.48;58.09;96134.69;10366937;28;20092;-22
2022/06/19 10:40:50;;;;;;;0.55;0.50;;;;;;;21.49;57.98;96131.25;10367513;28;20087;-21
2022/06/19 10:45:59;;;;;;;0.85;0.60;;;;;;;21.48;58.08;96124.50;10390296;28;20064;-20
2022/06/19 10:51:05;;;;;;;1.58;0.77;;;;;;;21.51;61.03;96119.34;10406282;28;20044;-22
2022/06/19 10:56:23;;;;;;;;;;;;;;;21.71;59.42;96124.06;10367112;28;20037;-21
2022/06/19 11:07:06;;;;;;;0.82;0.70;;;;;;;21.64;60.40;96110.56;10394988;28;20029;-22
2022/06/19 11:12:27;;;;;;;7.85;2.33;;;;;;;21.60;62.19;96108.97;10402719;28;20033;-20
2022/06/19 11:17:31;;;;;;;8.68;4.38;;;;;;;21.59;61.16;96097.09;10404328;28;20047;-19
2022/06/19 11:22:41;;;;;;;23.17;4.65;;;;;;;21.55;60.66;96090.38;10396417;28;20108;-19
2022/06/19 11:27:50;;;;;;;9.38;3.10;;;;;;;21.73;62.78;96087.44;10399324;28;20026;-22
2022/06/19 11:32:51;;;;;;;6.13;2.40;;;;;;;21.87;61.54;96087.13;10404964;28;20292;-21
2022/06/19 11:37:56;;;;;;;3.60;1.88;;;;;;;21.59;59.79;96076.72;10399710;28;20543;-22
2022/06/19 11:42:59;;;;;;;11.50;3.10;;;;;;;21.54;61.58;96083.63;10400458;28;20040;-21
2022/06/19 11:48:14;;;;;;;11.88;2.83;;;;;;;21.54;60.50;96078.53;10399464;28;20068;-21
2022/06/19 11:53:37;;;;;;;9.63;3.00;;;;;;;21.64;60.90;96068.97;10392896;28;20033;-22
2022/06/19 11:58:45;;;;;;;17.25;2.90;;;;;;;21.73;60.37;96067.06;10401823;28;20036;-21
2022/06/19 12:04:20;;;;;;;8.55;2.47;;;;;;;21.61;59.64;96063.94;10411358;28;20044;-22
2022/06/19 12:09:56;;;;;;;8.25;3.20;;;;;;;21.52;59.76;96065.00;10394496;28;20049;-22
2022/06/19 12:15:21;;;;;;;16.63;5.60;;;;;;;21.55;59.92;96052.16;10382766;28;20049;-21
2022/06/19 12:20:25;;;;;;;13.30;7.80;;;;;;;21.61;61.96;96053.75;10407653;28;20046;-22
2022/06/19 12:25:34;;;;;;;5.85;1.73;;;;;;;21.82;59.80;96051.56;10409257;28;20116;-23
2022/06/19 12:30:41;;;;;;;8.50;3.08;;;;;;;21.62;59.30;96048.63;10413758;28;20087;-22
2022/06/19 12:35:47;;;;;;;15.05;6.53;;;;;;;21.59;64.05;96030.88;10408745;28;20040;-24
2022/06/19 12:41:34;;;;;;;8.57;3.73;;;;;;;21.59;60.96;96030.00;10375751;28;20038;-21
2022/06/19 12:46:58;;;;;;;10.43;4.63;;;;;;;21.54;60.40;96032.66;10430428;28;20061;-22
2022/06/19 12:52:29;;;;;;;8.75;5.35;;;;;;;21.75;62.17;96019.47;10400495;28;20144;-22
2022/06/19 12:57:59;;;;;;;12.02;3.90;;;;;;;21.69;61.70;96032.34;10399356;28;20501;-22
2022/06/19 13:03:24;;;;;;;23.13;6.47;;;;;;;21.63;61.31;96006.97;10401906;28;21044;-21
2022/06/19 13:09:03;;;;;;;18.42;7.03;;;;;;;21.53;61.20;96010.63;10409102;28;20098;-23
2022/06/19 13:14:21;;;;;;;9.25;3.78;;;;;;;21.49;61.09;96003.91;10419842;28;20065;-22
2022/06/19 13:19:37;;;;;;;13.45;3.60;;;;;;;21.66;61.84;95991.66;10417657;28;20480;-22
2022/06/19 13:24:45;;;;;;;7.97;2.80;;;;;;;21.84;60.56;95987.81;10397624;28;20536;-23
2022/06/19 13:30:05;;;;;;;5.32;3.20;;;;;;;21.60;60.25;95979.03;10382395;28;20045;-21
2022/06/19 13:35:09;;;;;;;6.13;2.97;;;;;;;21.57;60.39;95981.63;10394463;28;20030;-21
2022/06/19 13:40:31;;;;;;;4.55;2.50;;;;;;;21.57;60.01;95976.56;10379124;28;20034;-21
2022/06/19 13:45:50;;;;;;;7.95;2.85;;;;;;;21.62;60.35;95973.88;10387871;28;20033;-21
2022/06/19 13:50:58;;;;;;;4.97;2.97;;;;;;;21.74;61.53;95964.28;10392215;28;20040;-22
2022/06/19 13:56:09;;;;;;;4.22;2.42;;;;;;;21.91;60.42;95959.59;10376656;28;20049;-24
2022/06/19 14:01:28;;;;;;;6.93;3.65;;;;;;;21.65;60.15;95959.41;10363196;28;20045;-23
2022/06/19 14:07:20;;;;;;;4.93;2.75;;;;;;;21.60;60.06;95951.03;10386810;28;20463;-21
2022/06/19 14:12:34;;;;;;;6.03;3.67;;;;;;;21.57;59.97;95951.06;10387241;28;20408;-21
2022/06/19 14:17:46;;;;;;;6.22;3.97;;;;;;;21.51;60.26;95938.50;10367616;28;20550;-21
2022/06/19 14:22:59;;;;;;;8.60;4.15;;;;;;;21.69;62.64;95935.53;10367068;28;20060;-22
2022/06/19 14:28:04;;;;;;;6.30;3.80;;;;;;;21.92;61.71;95933.25;10373960;28;20476;-21
2022/06/19 14:33:04;;;;;;;6.05;3.33;;;;;;;21.73;61.58;95928.66;10367416;28;20038;-21
2022/06/19 14:38:08;;;;;;;7.72;3.30;;;;;;;21.65;61.02;95928.84;10367293;28;20034;-21
2022/06/19 14:43:11;;;;;;;5.75;3.45;;;;;;;21.59;61.17;95928.13;10368633;28;20041;-22
2022/06/19 14:48:30;;;;;;;6.75;3.72;;;;;;;21.54;61.26;95920.59;10408080;28;20030;-22
2022/06/19 14:54:04;;;;;;;4.55;2.90;;;;;;;21.46;61.25;95911.50;10379392;28;20528;-21
2022/06/19 14:59:26;;;;;;;5.50;3.67;;;;;;;21.81;62.18;95919.94;10391695;28;20151;-21
2022/06/19 15:04:31;;;;;;;4.20;2.70;;;;;;;21.91;61.05;95916.25;10445815;28;20036;-21
2022/06/19 15:09:43;;;;;;;5.10;3.83;;;;;;;21.77;60.91;95912.41;10367096;28;20492;-21
2022/06/19 15:14:47;;;;;;;10.38;4.70;;;;;;;21.67;61.15;95909.28;10366293;28;20034;-23
2022/06/19 15:19:48;;;;;;;7.13;4.57;;;;;;;21.60;61.33;95910.25;10366863;28;20041;-21
2022/06/19 15:24:51;;;;;;;7.97;4.40;;;;;;;21.57;61.38;95902.69;10366010;28;20038;-22
2022/06/19 15:30:07;;;;;;;7.68;4.75;;;;;;;21.66;63.90;95897.38;10366513;28;20093;-21
2022/06/19 15:35:29;;;;;;;3.47;3.17;;;;;;;21.97;61.34;95900.00;10365686;28;20029;-22
2022/06/19 15:40:42;;;;;;;5.55;2.75;;;;;;;21.85;62.21;95890.09;10366163;28;20046;-21
2022/06/19 15:45:53;;;;;;;9.00;3.72;;;;;;;21.74;60.93;95885.28;10387841;28;20041;-22
2022/06/19 15:50:53;;;;;;;6.00;3.47;;;;;;;21.66;61.19;95877.00;10396238;28;20037;-21
2022/06/19 15:55:59;;;;;;;6.17;3.63;;;;;;;21.63;60.97;95873.69;10412435;28;20034;-21
2022/06/19 16:01:04;;;;;;;9.47;3.70;;;;;;;21.56;61.25;95873.00;10372671;28;20031;-24
2022/06/19 16:06:15;;;;;;;5.15;3.00;;;;;;;21.90;62.39;95878.09;10372792;28;20045;-22
2022/06/19 16:11:53;;;;;;;4.50;3.03;;;;;;;21.89;60.29;95877.25;10372408;28;20034;-22
2022/06/19 16:16:59;;;;;;;7.00;3.83;;;;;;;21.75;60.66;95881.88;10370996;28;20176;-21
2022/06/19 16:22:03;;;;;;;;;;;;;;;21.66;61.01;95879.56;10372430;28;20060;-21
2022/06/19 16:27:06;;;;;;;3.83;3.30;;;;;;;21.60;61.06;95882.25;10371050;28;20372;-21
2022/06/19 16:32:18;;;;;;;4.63;2.80;;;;;;;21.86;62.20;95867.16;10371760;28;20475;-22
2022/06/19 16:48:02;;;;;;;4.60;4.10;;;;;;;21.69;60.80;95879.50;10411880;28;20061;-22
2022/06/19 16:53:03;;;;;;;7.30;4.43;;;;;;;21.67;61.03;95876.16;10409186;28;20460;-22
2022/06/19 16:58:09;;;;;;;6.65;4.82;;;;;;;21.65;61.18;95887.25;10394074;28;20109;-21
2022/06/19 17:03:35;;;;;;;5.05;2.80;;;;;;;21.93;61.63;95894.16;10369655;28;20415;-21
2022/06/19 17:08:41;;;;;;;2.70;2.35;;;;;;;21.92;60.41;95887.38;10370414;28;20488;-21
2022/06/19 17:13:45;;;;;;;4.78;2.42;;;;;;;21.75;60.30;95894.63;10370389;28;20120;-22
2022/06/19 17:18:51;;;;;;;3.55;3.20;;;;;;;21.68;60.64;95898.19;10369820;28;20041;-22
2022/06/19 17:24:11;;;;;;;4.78;2.47;;;;;;;21.65;60.70;95903.34;10401116;28;20044;-21
2022/06/19 17:29:19;;;;;;;6.75;3.17;;;;;;;21.63;60.63;95909.34;10414192;28;20042;-21
2022/06/19 17:34:24;;;;;;;4.65;3.03;;;;;;;21.87;62.57;95908.75;10414993;28;20041;-23
2022/06/19 17:39:33;;;;;;;5.15;2.15;;;;;;;21.97;61.06;95911.00;10369910;28;20034;-22
2022/06/19 17:44:37;;;;;;;4.38;2.30;;;;;;;21.77;60.48;95908.16;10392459;28;20048;-22
2022/06/19 17:49:42;;;;;;;3.30;2.95;;;;;;;21.71;60.66;95912.59;10409810;28;20038;-22
2022/06/19 17:54:43;;;;;;;3.55;2.83;;;;;;;21.69;61.09;95910.06;10403334;28;20085;-21
2022/06/19 17:59:46;;;;;;;4.78;3.10;;;;;;;21.68;60.80;95908.41;10406874;28;20029;-20
2022/06/19 18:04:57;;;;;;;5.15;3.92;;;;;;;21.70;61.79;95916.81;10449853;28;20037;-21
2022/06/19 18:10:32;;;;;;;13.43;5.85;;;;;;;22.03;64.26;95910.84;10405816;28;20036;-21
2022/06/19 18:21:11;;;;;;;8.05;3.50;;;;;;;21.77;60.32;95897.97;10377182;28;20026;-21
2022/06/19 18:26:17;;;;;;;12.48;5.55;;;;;;;21.73;60.77;95900.63;10416775;28;20123;-22
2022/06/19 18:31:18;;;;;;;4.88;3.25;;;;;;;21.71;60.71;95908.31;10391777;28;20389;-23
2022/06/19 18:36:19;;;;;;;5.73;4.13;;;;;;;21.69;60.56;95912.63;10408517;28;20037;-22
2022/06/19 18:41:19;;;;;;;8.55;3.22;;;;;;;21.85;63.63;95925.78;10429261;28;20324;-22
2022/06/19 18:46:20;;;;;;;2.10;1.90;;;;;;;22.05;60.35;95926.94;10405855;28;20045;-22
2022/06/19 18:51:20;;;;;;;3.00;2.40;;;;;;;21.89;59.89;95923.13;10402329;28;20287;-21
2022/06/19 18:56:21;;;;;;;7.23;4.07;;;;;;;21.79;61.17;95942.06;10400802;28;20586;-21
2022/06/19 19:01:24;;;;;;;8.93;3.38;;;;;;;21.80;60.71;95942.94;10400875;28;20087;-21
2022/06/19 19:06:25;;;;;;;6.22;4.10;;;;;;;21.75;60.41;95952.38;10390935;28;20049;-21
2022/06/19 19:11:26;;;;;;;6.00;4.20;;;;;;;21.60;61.73;95945.06;10392666;28;20474;-22
2022/06/19 19:16:40;;;;;;;8.05;3.80;;;;;;;21.90;62.46;95965.56;10398015;28;20040;-22
2022/06/19 19:21:40;;;;;;;4.95;2.92;;;;;;;22.10;60.38;95960.81;10397409;28;20525;-20
2022/06/19 19:26:44;;;;;;;6.43;3.00;;;;;;;21.99;60.06;95975.53;10387590;28;20045;-22
2022/06/19 19:31:45;;;;;;;5.80;2.50;;;;;;;21.88;59.76;95976.69;10404318;28;20120;-21
2022/06/19 19:36:48;;;;;;;6.85;3.38;;;;;;;21.80;60.09;95979.41;10404151;28;20593;-21
2022/06/19 19:41:49;;;;;;;6.95;3.55;;;;;;;21.78;60.04;95986.28;10402552;28;20535;-24
2022/06/19 19:46:54;;;;;;;6.28;4.13;;;;;;;21.69;60.19;95989.03;10406199;28;20037;-25
2022/06/19 19:51:58;;;;;;;8.57;5.20;;;;;;;21.84;62.26;95996.31;10405953;28;20037;-21
2022/06/19 19:56:59;;;;;;;5.28;3.72;;;;;;;22.07;62.55;95994.00;10386933;28;20119;-21
2022/06/19 20:01:59;;;;;;;2.67;2.45;;;;;;;22.14;62.54;96007.47;10424301;28;20119;-21
2022/06/19 20:12:32;;;;;;;5.38;4.88;;;;;;;21.95;60.04;96007.06;10377651;28;20045;-21
2022/06/19 20:17:32;;;;;;;7.43;4.78;;;;;;;21.88;60.24;96003.00;10402902;28;20030;-22
2022/06/19 20:22:38;;;;;;;9.15;5.25;;;;;;;21.85;60.12;96008.19;10405399;28;20056;-21
2022/06/19 20:27:48;;;;;;;9.18;4.82;;;;;;;21.80;60.04;96002.34;10406017;28;20137;-21
2022/06/19 20:32:53;;;;;;;8.15;5.10;;;;;;;21.96;62.94;96005.34;10399408;28;20037;-21
2022/06/19 20:38:23;;;;;;;3.97;2.78;;;;;;;22.15;60.81;96006.59;10415199;28;20025;-21
2022/06/19 20:43:24;;;;;;;7.28;4.00;;;;;;;22.03;60.35;95996.69;10388879;28;20033;-21
2022/06/19 20:48:25;;;;;;;3.67;2.60;;;;;;;21.93;60.75;95993.53;10414683;28;20040;-23
2022/06/19 20:53:28;;;;;;;4.10;2.90;;;;;;;21.89;59.82;95976.63;10386771;28;20045;-23
2022/06/19 20:58:29;;;;;;;8.35;4.32;;;;;;;21.90;60.76;95988.50;10373560;28;20220;-21
2022/06/19 21:03:29;;;;;;;7.57;5.60;;;;;;;21.88;59.89;95995.34;10372836;28;20033;-21
2022/06/19 21:08:32;;;;;;;8.70;4.70;;;;;;;21.92;62.12;95994.41;10372090;28;20419;-21
2022/06/19 21:13:35;;;;;;;5.22;2.97;;;;;;;22.06;62.10;95982.16;10370284;28;20492;-22
2022/06/19 21:18:36;;;;;;;2.75;2.45;;;;;;;22.18;60.29;95981.84;10444812;28;20507;-21
2022/06/19 21:23:40;;;;;;;3.90;2.53;;;;;;;22.03;59.99;95983.94;10380217;28;20279;-21
2022/06/19 21:28:40;;;;;;;4.30;3.42;;;;;;;21.91;59.87;95969.78;10368443;28;20092;-21
2022/06/19 21:33:41;;;;;;;4.53;3.57;;;;;;;21.85;59.63;95972.50;10369087;28;20103;-22
2022/06/19 21:38:44;;;;;;;6.57;3.80;;;;;;;21.80;59.60;95959.03;10369348;28;20037;-23
2022/06/19 21:43:44;;;;;;;6.50;4.30;;;;;;;21.81;59.76;95965.78;10375861;28;20033;-21
2022/06/19 21:48:45;;;;;;;4.75;4.22;;;;;;;21.84;59.76;95959.78;10410220;28;20183;-21
2022/06/19 21:53:52;;;;;;;3.38;2.33;;;;;;;22.07;61.59;95960.06;10406429;28;20041;-20
2022/06/19 21:58:54;;;;;;;2.10;1.80;;;;;;;22.13;61.53;95947.16;10385388;28;20128;-21
2022/06/19 22:03:55;;;;;;;4.43;3.15;;;;;;;22.02;59.75;95951.69;10368045;28;20062;-21
2022/06/19 22:08:55;;;;;;;3.20;2.73;;;;;;;21.91;59.56;95944.28;10368016;28;20109;-21
2022/06/19 22:13:55;;;;;;;5.47;4.22;;;;;;;21.88;59.66;95941.84;10366997;28;20610;-21
2022/06/19 22:18:56;;;;;;;5.67;4.57;;;;;;;21.84;59.49;95944.50;10368143;28;20044;-22
2022/06/19 22:23:58;;;;;;;4.85;4.22;;;;;;;21.85;59.61;95962.31;10367087;28;20484;-22
2022/06/19 22:29:01;;;;;;;5.25;4.68;;;;;;;21.86;59.55;95969.06;10368208;28;20041;-21
2022/06/19 22:34:02;;;;;;;2.85;2.55;;;;;;;22.08;61.00;95967.63;10367899;28;20033;-21
2022/06/19 22:39:10;;;;;;;2.20;1.83;;;;;;;22.14;61.55;95975.13;10368305;28;20104;-22
2022/06/19 22:44:24;;;;;;;4.10;2.58;;;;;;;21.98;59.35;95968.75;10377609;28;20439;-21
2022/06/19 22:49:25;;;;;;;3.58;3.20;;;;;;;21.92;59.47;95988.47;10408336;28;20037;-22
2022/06/19 22:54:26;;;;;;;5.13;4.03;;;;;;;21.92;59.63;95983.38;10376687;28;20030;-20
2022/06/19 23:04:51;;;;;;;6.40;4.53;;;;;;;21.84;59.49;96006.50;10372801;28;20042;-25
2022/06/19 23:09:51;;;;;;;5.28;4.20;;;;;;;21.84;59.35;96016.72;10375494;28;20038;-21
2022/06/19 23:14:51;;;;;;;3.50;2.27;;;;;;;22.05;60.37;96011.06;10375186;28;20459;-21
2022/06/19 23:19:53;;;;;;;2.17;1.80;;;;;;;22.14;60.46;96026.13;10375267;28;20500;-22
2022/06/19 23:24:54;;;;;;;5.85;3.88;;;;;;;22.04;59.54;96034.03;10374219;28;20072;-21
2022/06/19 23:29:56;;;;;;;6.28;3.42;;;;;;;21.97;59.30;96035.91;10374149;28;20153;-22
2022/06/19 23:34:57;;;;;;;7.63;4.15;;;;;;;21.89;59.14;96042.91;10373859;28;20033;-22
2022/06/19 23:39:57;;;;;;;9.97;4.80;;;;;;;21.86;59.30;96040.44;10373378;28;20048;-21
2022/06/19 23:45:28;;;;;;;6.93;3.95;;;;;;;21.82;59.14;96033.72;10390006;28;20029;-22
2022/06/19 23:50:30;;;;;;;8.15;4.53;;;;;;;21.88;59.45;96048.06;10411661;28;20152;-21
2022/06/19 23:55:32;;;;;;;3.38;2.45;;;;;;;22.06;59.79;96053.53;10413948;28;20034;-21
